Time;durP1;ratioP1;P1;durP2;ratioP2;P2;SDS_P1;SDS_P2;PMS_P1;PMS_P2;Temp;Humidity;BMP_temperature;BMP_pressure;BME280_temperature;BME280_humidity;BME280_pressure;Samples;Min_cycle;Max_cycle;Signal;HPM_P1;HPM_P2
2023/12/31 00:01:10;;;;;;;5.40;4.43;;;;;;;4.75;100.00;99758.38;5049566;28;20949;-76
2023/12/31 00:03:36;;;;;;;5.07;3.97;;;;;;;4.67;100.00;99748.97;5051384;28;20586;-76
2023/12/31 00:06:02;;;;;;;4.33;3.90;;;;;;;4.66;100.00;99741.25;5049272;28;20601;-77
2023/12/31 00:08:27;;;;;;;4.30;3.70;;;;;;;4.64;100.00;99731.00;5048383;28;20195;-77
2023/12/31 00:10:52;;;;;;;3.67;3.37;;;;;;;4.63;100.00;99731.84;5054042;28;20280;-77
2023/12/31 00:13:17;;;;;;;4.00;3.60;;;;;;;4.61;100.00;99718.16;5054273;28;20222;-77
2023/12/31 00:15:43;;;;;;;3.67;3.30;;;;;;;4.61;100.00;99701.94;5052342;28;20200;-78
2023/12/31 00:18:08;;;;;;;4.70;3.67;;;;;;;4.60;100.00;99702.78;5049473;28;20203;-77
2023/12/31 00:20:33;;;;;;;3.63;3.30;;;;;;;4.54;100.00;99696.75;5052109;28;20850;-76
2023/12/31 00:22:59;;;;;;;4.50;3.07;;;;;;;4.50;100.00;99702.69;5051552;28;20221;-77
2023/12/31 00:25:24;;;;;;;5.57;5.07;;;;;;;4.47;100.00;99684.75;5057614;28;20380;-76
2023/12/31 00:27:49;;;;;;;4.93;4.30;;;;;;;4.42;100.00;99673.63;5053910;28;20193;-77
2023/12/31 00:30:14;;;;;;;6.87;5.03;;;;;;;4.45;100.00;99665.09;5049017;28;20206;-76
2023/12/31 00:32:40;;;;;;;4.13;3.83;;;;;;;4.36;100.00;99659.06;5046075;28;20206;-76
2023/12/31 00:35:05;;;;;;;4.63;4.23;;;;;;;4.32;100.00;99654.78;5049996;28;20260;-77
2023/12/31 00:37:31;;;;;;;3.83;3.50;;;;;;;4.30;100.00;99653.91;5045271;28;20199;-76
2023/12/31 00:39:56;;;;;;;4.73;3.80;;;;;;;4.29;100.00;99659.88;5054908;28;20197;-77
2023/12/31 00:42:21;;;;;;;5.50;4.40;;;;;;;4.31;100.00;99654.78;5051825;28;20202;-77
2023/12/31 00:44:47;;;;;;;6.53;4.20;;;;;;;4.29;100.00;99631.69;5053294;28;20198;-76
2023/12/31 00:47:12;;;;;;;4.07;3.67;;;;;;;4.27;100.00;99628.25;5048363;28;20171;-75
2023/12/31 00:49:38;;;;;;;5.07;4.63;;;;;;;4.23;100.00;99622.28;5058866;28;20711;-76
2023/12/31 00:52:03;;;;;;;5.47;4.40;;;;;;;4.15;100.00;99623.94;5057254;28;20781;-76
2023/12/31 00:54:28;;;;;;;4.37;3.97;;;;;;;4.09;100.00;99626.44;5049997;28;20357;-76
2023/12/31 00:56:54;;;;;;;4.33;3.93;;;;;;;4.06;100.00;99631.53;5045023;28;20968;-77
2023/12/31 00:59:19;;;;;;;4.40;3.90;;;;;;;4.02;100.00;99634.91;5049364;28;20198;-76
2023/12/31 01:01:44;;;;;;;5.03;3.87;;;;;;;3.94;100.00;99640.84;5050160;28;20245;-77
2023/12/31 01:04:10;;;;;;;3.97;3.67;;;;;;;3.89;100.00;99623.75;5061487;28;20202;-77
2023/12/31 01:06:35;;;;;;;4.90;3.80;;;;;;;3.85;100.00;99622.00;5048079;28;20182;-76
2023/12/31 01:09:00;;;;;;;4.90;4.40;;;;;;;3.84;100.00;99623.72;5044157;28;20200;-78
2023/12/31 01:11:29;;;;;;;3.93;3.53;;;;;;;3.81;100.00;99616.00;5051112;28;20239;-77
2023/12/31 01:13:54;;;;;;;3.90;3.60;;;;;;;3.75;100.00;99603.16;5055858;28;20202;-77
2023/12/31 01:16:20;;;;;;;3.83;3.53;;;;;;;3.74;100.00;99609.13;5049942;28;20215;-76
2023/12/31 01:18:45;;;;;;;3.73;3.43;;;;;;;3.72;100.00;99605.69;5050003;28;20187;-76
2023/12/31 01:21:10;;;;;;;4.17;3.53;;;;;;;3.70;100.00;99597.16;5045890;28;20761;-77
2023/12/31 01:23:36;;;;;;;3.33;3.03;;;;;;;3.68;100.00;99599.69;5044786;28;20201;-76
2023/12/31 01:26:02;;;;;;;3.63;3.30;;;;;;;3.66;100.00;99592.03;5045967;28;20214;-76
2023/12/31 01:28:27;;;;;;;3.80;2.83;;;;;;;3.67;100.00;99597.97;5046592;28;20189;-75
2023/12/31 01:30:52;;;;;;;3.77;3.30;;;;;;;3.70;100.00;99581.81;5046266;28;20586;-76
2023/12/31 01:33:18;;;;;;;4.23;3.53;;;;;;;3.72;100.00;99591.19;5049447;28;20772;-77
2023/12/31 01:35:43;;;;;;;4.33;3.33;;;;;;;3.75;100.00;99582.69;5048137;28;20229;-77
2023/12/31 01:38:08;;;;;;;3.47;3.17;;;;;;;3.77;100.00;99575.88;5043407;28;20183;-77
2023/12/31 01:40:34;;;;;;;3.33;3.00;;;;;;;3.77;100.00;99565.63;5046132;28;20181;-77
2023/12/31 01:42:59;;;;;;;3.77;3.47;;;;;;;3.76;100.00;99548.56;5049547;28;20292;-76
2023/12/31 01:45:24;;;;;;;4.20;3.77;;;;;;;3.76;100.00;99556.25;5048611;28;20756;-77
2023/12/31 01:47:51;;;;;;;4.20;3.80;;;;;;;3.72;100.00;99557.94;5047685;28;20190;-77
2023/12/31 01:50:18;;;;;;;3.93;3.63;;;;;;;3.74;100.00;99553.69;5048357;28;20178;-76
2023/12/31 01:52:44;;;;;;;3.90;3.47;;;;;;;3.76;100.00;99546.88;5042353;28;20210;-77
2023/12/31 01:55:11;;;;;;;3.67;3.37;;;;;;;3.81;100.00;99537.50;5047997;28;21068;-76
2023/12/31 01:57:37;;;;;;;3.80;3.40;;;;;;;3.79;100.00;99544.31;5050179;28;20223;-77
2023/12/31 02:00:05;;;;;;;3.93;3.20;;;;;;;3.80;100.00;99540.91;5051896;28;20195;-77
2023/12/31 02:02:31;;;;;;;3.73;3.20;;;;;;;3.83;100.00;99539.22;5050417;28;20852;-77
2023/12/31 02:04:57;;;;;;;3.13;2.87;;;;;;;3.84;100.00;99546.94;5044015;28;20186;-77
2023/12/31 02:07:23;;;;;;;5.13;3.63;;;;;;;3.89;100.00;99518.81;5045826;28;20585;-77
2023/12/31 02:09:49;;;;;;;4.10;3.37;;;;;;;3.83;100.00;99532.41;5054006;28;20295;-77
2023/12/31 02:12:15;;;;;;;4.07;3.07;;;;;;;3.80;100.00;99519.59;5049139;28;20199;-76
2023/12/31 02:14:40;;;;;;;3.30;2.77;;;;;;;3.83;100.00;99522.19;5046138;28;20182;-76
2023/12/31 02:17:05;;;;;;;3.87;3.00;;;;;;;3.87;100.00;99500.84;5053317;28;20217;-77
2023/12/31 02:19:30;;;;;;;3.07;2.77;;;;;;;3.94;100.00;99504.31;5045914;28;20781;-77
2023/12/31 02:21:56;;;;;;;3.20;2.90;;;;;;;4.01;100.00;99505.22;5052631;28;20324;-77
2023/12/31 02:24:29;;;;;;;3.97;3.27;;;;;;;3.99;100.00;99502.63;5052729;28;20185;-77
2023/12/31 02:26:54;;;;;;;3.53;2.60;;;;;;;4.04;100.00;99498.41;5050544;28;20236;-77
2023/12/31 02:29:20;;;;;;;4.17;2.50;;;;;;;4.10;100.00;99488.16;5047459;28;20194;-75
2023/12/31 02:31:45;;;;;;;2.90;2.60;;;;;;;4.16;100.00;99499.31;5046132;28;20307;-76
2023/12/31 02:34:11;;;;;;;2.77;2.47;;;;;;;4.24;100.00;99482.25;5047548;28;20182;-77
2023/12/31 02:36:36;;;;;;;3.07;2.60;;;;;;;4.31;100.00;99473.75;5049641;28;20195;-78
2023/12/31 02:39:02;;;;;;;2.97;2.77;;;;;;;4.37;100.00;99465.22;5045803;28;20182;-76
2023/12/31 02:41:27;;;;;;;3.30;2.63;;;;;;;4.44;100.00;99469.53;5050666;28;20186;-77
2023/12/31 02:43:53;;;;;;;2.97;2.67;;;;;;;4.45;100.00;99455.88;5053102;28;20332;-76
2023/12/31 02:46:19;;;;;;;3.10;2.80;;;;;;;4.48;100.00;99445.59;5042664;28;20179;-77
2023/12/31 02:48:44;;;;;;;2.83;2.53;;;;;;;4.52;100.00;99449.91;5047376;28;20197;-77
2023/12/31 02:51:09;;;;;;;3.30;3.00;;;;;;;4.51;100.00;99445.63;5045011;28;20187;-77
2023/12/31 02:53:35;;;;;;;3.80;2.97;;;;;;;4.49;100.00;99431.94;5042689;28;20211;-76
2023/12/31 02:56:00;;;;;;;3.47;2.53;;;;;;;4.49;100.00;99433.66;5038903;28;20242;-77
2023/12/31 02:58:26;;;;;;;2.40;2.20;;;;;;;4.53;100.00;99431.09;5048298;28;20588;-78
2023/12/31 03:00:51;;;;;;;2.67;2.47;;;;;;;4.55;100.00;99429.41;5043850;28;20253;-77
2023/12/31 03:03:16;;;;;;;2.67;2.47;;;;;;;4.62;100.00;99420.03;5048697;28;20722;-77
2023/12/31 03:05:42;;;;;;;2.43;2.20;;;;;;;4.69;100.00;99423.44;5054554;28;20660;-77
2023/12/31 03:08:07;;;;;;;2.10;1.90;;;;;;;4.76;100.00;99427.72;5052537;28;20218;-77
2023/12/31 03:10:32;;;;;;;2.57;1.97;;;;;;;4.82;100.00;99416.63;5051446;28;20205;-77
2023/12/31 03:12:57;;;;;;;3.30;2.30;;;;;;;4.87;100.00;99407.22;5052057;28;20928;-78
2023/12/31 03:15:23;;;;;;;2.40;2.20;;;;;;;4.91;100.00;99415.78;5052985;28;21071;-76
2023/12/31 03:17:48;;;;;;;3.03;2.60;;;;;;;4.92;100.00;99404.63;5043235;28;20241;-76
2023/12/31 03:20:14;;;;;;;4.23;3.03;;;;;;;4.91;100.00;99402.97;5050861;28;20194;-77
2023/12/31 03:22:39;;;;;;;3.77;2.90;;;;;;;4.89;100.00;99387.56;5050044;28;20715;-77
2023/12/31 03:25:05;;;;;;;3.30;3.00;;;;;;;4.85;100.00;99393.53;5048297;28;20186;-76
2023/12/31 03:27:30;;;;;;;3.50;2.90;;;;;;;4.81;100.00;99402.09;5056038;28;20658;-76
2023/12/31 03:29:57;;;;;;;3.53;3.00;;;;;;;4.78;100.00;99395.25;5054519;28;20647;-77
2023/12/31 03:32:22;;;;;;;2.63;2.43;;;;;;;4.76;100.00;99383.28;5045740;28;20307;-77
2023/12/31 03:34:48;;;;;;;2.80;2.60;;;;;;;4.74;100.00;99388.44;5049783;28;20266;-76
2023/12/31 03:37:14;;;;;;;3.87;2.80;;;;;;;4.67;100.00;99377.31;5049980;28;20295;-76
2023/12/31 03:39:40;;;;;;;3.70;3.20;;;;;;;4.64;100.00;99376.44;5052560;28;20277;-76
2023/12/31 03:42:06;;;;;;;2.77;2.57;;;;;;;4.61;100.00;99373.91;5054878;28;20278;-76
2023/12/31 03:44:31;;;;;;;3.60;3.30;;;;;;;4.54;100.00;99373.88;5047249;28;20282;-76
2023/12/31 03:46:56;;;;;;;3.00;2.80;;;;;;;4.54;100.00;99375.56;5046684;28;20415;-77
2023/12/31 03:49:22;;;;;;;4.43;2.83;;;;;;;4.52;100.00;99361.94;5045350;28;20187;-77
2023/12/31 03:51:49;;;;;;;3.27;2.97;;;;;;;4.52;100.00;99359.38;5048812;28;20656;-77
2023/12/31 03:54:15;;;;;;;3.93;3.23;;;;;;;4.52;100.00;99356.81;5052297;28;20206;-76
2023/12/31 03:56:40;;;;;;;2.53;2.33;;;;;;;4.53;100.00;99358.53;5051689;28;20920;-76
2023/12/31 03:59:05;;;;;;;3.73;3.23;;;;;;;4.55;100.00;99346.53;5049143;28;20209;-76
2023/12/31 04:01:31;;;;;;;3.47;3.13;;;;;;;4.54;100.00;99345.69;5044509;28;20639;-78
2023/12/31 04:03:56;;;;;;;3.70;2.57;;;;;;;4.53;100.00;99351.66;5053428;28;20210;-77
2023/12/31 04:06:21;;;;;;;2.67;2.43;;;;;;;4.55;100.00;99343.97;5045392;28;20183;-76
2023/12/31 04:08:47;;;;;;;2.70;2.37;;;;;;;4.55;100.00;99349.09;5049422;28;20667;-77
2023/12/31 04:11:13;;;;;;;2.30;2.10;;;;;;;4.55;100.00;99339.72;5051170;28;20191;-76
2023/12/31 04:13:41;;;;;;;2.63;2.03;;;;;;;4.57;100.00;99339.72;5049717;28;20218;-77
2023/12/31 04:16:08;;;;;;;2.73;2.13;;;;;;;4.61;100.00;99340.59;5051606;28;20212;-78
2023/12/31 04:18:34;;;;;;;3.13;2.40;;;;;;;4.65;100.00;99334.59;5047081;28;20217;-78
2023/12/31 04:20:59;;;;;;;2.90;2.30;;;;;;;4.67;100.00;99331.19;5051224;28;20225;-76
2023/12/31 04:23:25;;;;;;;2.50;2.30;;;;;;;4.68;100.00;99332.03;5051350;28;20201;-78
2023/12/31 04:25:50;;;;;;;3.77;2.60;;;;;;;4.67;100.00;99331.19;5046685;28;20182;-77
2023/12/31 04:28:15;;;;;;;2.90;2.67;;;;;;;4.68;100.00;99320.09;5046402;28;20357;-78
2023/12/31 04:30:41;;;;;;;2.23;2.03;;;;;;;4.70;100.00;99310.66;5052008;28;20670;-76
2023/12/31 04:33:07;;;;;;;3.40;2.20;;;;;;;4.76;100.00;99303.81;5051487;28;20202;-76
2023/12/31 04:35:32;;;;;;;2.83;2.60;;;;;;;4.79;100.00;99307.22;5050428;28;20756;-76
2023/12/31 04:37:57;;;;;;;2.13;1.93;;;;;;;4.81;100.00;99295.28;5051554;28;20829;-77
2023/12/31 04:40:22;;;;;;;2.70;2.50;;;;;;;4.84;100.00;99300.41;5048697;28;20801;-77
2023/12/31 04:42:48;;;;;;;2.50;2.30;;;;;;;4.89;100.00;99308.06;5048584;28;20210;-77
2023/12/31 04:45:13;;;;;;;2.20;2.00;;;;;;;4.92;100.00;99310.63;5058200;28;20765;-77
2023/12/31 04:47:38;;;;;;;3.80;2.63;;;;;;;4.92;100.00;99309.78;5049763;28;20233;-78
2023/12/31 04:50:05;;;;;;;2.47;2.27;;;;;;;4.88;100.00;99306.38;5047931;28;20213;-77
2023/12/31 04:52:30;;;;;;;2.90;2.60;;;;;;;4.87;100.00;99295.28;5052260;28;20206;-76
2023/12/31 04:54:55;;;;;;;3.00;2.70;;;;;;;4.86;100.00;99297.81;5050234;28;20699;-76
2023/12/31 04:57:21;;;;;;;2.77;2.30;;;;;;;4.89;100.00;99285.00;5047122;28;20218;-76
2023/12/31 04:59:46;;;;;;;3.03;2.50;;;;;;;4.90;100.00;99281.59;5047155;28;20183;-76
2023/12/31 05:02:12;;;;;;;2.70;2.50;;;;;;;4.91;100.00;99280.72;5055630;28;20237;-78
2023/12/31 05:04:39;;;;;;;2.83;2.60;;;;;;;4.93;100.00;99290.97;5048998;28;20676;-77
2023/12/31 05:07:05;;;;;;;2.30;2.10;;;;;;;4.94;100.00;99293.53;5053007;28;20240;-76
2023/12/31 05:09:30;;;;;;;3.40;2.57;;;;;;;4.94;100.00;99295.25;5053008;28;20283;-77
2023/12/31 05:11:56;;;;;;;2.50;2.00;;;;;;;4.92;100.00;99289.25;5055055;28;20273;-77
2023/12/31 05:14:21;;;;;;;2.57;2.37;;;;;;;4.89;100.00;99282.44;5053663;28;20196;-76
2023/12/31 05:16:46;;;;;;;2.53;2.30;;;;;;;4.84;100.00;99284.19;5045018;28;20229;-77
2023/12/31 05:19:12;;;;;;;2.23;2.03;;;;;;;4.80;100.00;99290.16;5045407;28;20184;-76
2023/12/31 05:21:39;;;;;;;2.40;2.20;;;;;;;4.71;100.00;99285.91;5054296;28;20294;-78
2023/12/31 05:24:05;;;;;;;2.10;1.93;;;;;;;4.64;100.00;99290.19;5049721;28;20197;-76
2023/12/31 05:26:30;;;;;;;2.50;2.30;;;;;;;4.59;100.00;99302.13;5059415;28;20701;-77
2023/12/31 05:28:56;;;;;;;2.20;2.00;;;;;;;4.55;100.00;99310.66;5051315;28;20280;-78
2023/12/31 05:31:21;;;;;;;2.13;1.90;;;;;;;4.54;100.00;99306.38;5047508;28;20731;-78
2023/12/31 05:33:47;;;;;;;2.70;2.07;;;;;;;4.52;100.00;99305.56;5047568;28;20859;-77
2023/12/31 05:36:12;;;;;;;2.27;2.07;;;;;;;4.50;100.00;99305.53;5054618;28;20206;-76
2023/12/31 05:38:37;;;;;;;2.50;2.30;;;;;;;4.50;100.00;99302.16;5057618;28;20786;-78
2023/12/31 05:41:03;;;;;;;2.73;2.50;;;;;;;4.49;100.00;99293.59;5057585;28;20275;-76
2023/12/31 05:43:28;;;;;;;2.73;2.47;;;;;;;4.49;100.00;99285.06;5052458;28;20214;-76
2023/12/31 05:45:53;;;;;;;3.23;2.70;;;;;;;4.50;100.00;99289.34;5050966;28;20555;-78
2023/12/31 05:48:19;;;;;;;2.80;2.20;;;;;;;4.50;100.00;99286.78;5054291;28;20708;-77
2023/12/31 05:50:46;;;;;;;2.87;2.20;;;;;;;4.51;100.00;99301.28;5049346;28;20190;-77
2023/12/31 05:53:11;;;;;;;3.37;2.80;;;;;;;4.52;100.00;99290.19;5053609;28;20209;-78
2023/12/31 05:55:36;;;;;;;3.67;2.57;;;;;;;4.50;100.00;99291.91;5047326;28;20217;-77
2023/12/31 05:58:02;;;;;;;3.10;2.70;;;;;;;4.52;100.00;99297.88;5050135;28;21092;-77
2023/12/31 06:00:27;;;;;;;2.90;2.60;;;;;;;4.54;100.00;99291.00;5052749;28;20195;-75
2023/12/31 06:02:52;;;;;;;2.97;2.73;;;;;;;4.55;100.00;99292.72;5059431;28;20210;-77
2023/12/31 06:05:18;;;;;;;2.73;2.53;;;;;;;4.60;100.00;99287.63;5056381;28;20191;-77
2023/12/31 06:07:43;;;;;;;2.83;2.30;;;;;;;4.62;100.00;99289.31;5057253;28;20684;-76
2023/12/31 06:10:09;;;;;;;2.30;2.10;;;;;;;4.65;100.00;99286.75;5052277;28;20205;-77
2023/12/31 06:12:34;;;;;;;2.53;2.33;;;;;;;4.68;100.00;99280.75;5053066;28;20213;-76
2023/12/31 06:15:00;;;;;;;2.40;2.20;;;;;;;4.69;100.00;99283.31;5047244;28;20182;-77
2023/12/31 06:17:26;;;;;;;2.27;1.97;;;;;;;4.67;100.00;99277.38;5045463;28;21021;-77
2023/12/31 06:19:51;;;;;;;3.50;2.80;;;;;;;4.61;100.00;99274.78;5051692;28;21013;-75
2023/12/31 06:22:17;;;;;;;3.03;2.73;;;;;;;4.57;100.00;99268.81;5057483;28;20554;-78
2023/12/31 06:24:42;;;;;;;3.00;2.70;;;;;;;4.55;100.00;99267.09;5049523;28;20230;-76
2023/12/31 06:27:07;;;;;;;2.57;2.37;;;;;;;4.51;100.00;99265.41;5050457;28;20273;-76
2023/12/31 06:29:33;;;;;;;3.57;2.63;;;;;;;4.51;100.00;99253.44;5046728;28;20191;-77
2023/12/31 06:32:01;;;;;;;2.63;2.43;;;;;;;4.50;100.00;99256.03;5049570;28;20189;-75
2023/12/31 06:34:27;;;;;;;3.17;2.67;;;;;;;4.51;100.00;99245.75;5057406;28;20269;-76
2023/12/31 06:36:52;;;;;;;3.43;2.90;;;;;;;4.53;100.00;99250.91;5053712;28;20215;-77
2023/12/31 06:39:18;;;;;;;2.70;2.50;;;;;;;4.52;100.00;99241.50;5060324;28;20195;-76
2023/12/31 06:41:43;;;;;;;2.40;2.20;;;;;;;4.52;100.00;99229.53;5049629;28;20201;-76
2023/12/31 06:44:08;;;;;;;4.00;2.43;;;;;;;4.55;100.00;99238.91;5048348;28;20190;-77
2023/12/31 06:46:33;;;;;;;2.37;2.10;;;;;;;4.58;100.00;99231.22;5050183;28;20273;-77
2023/12/31 06:48:59;;;;;;;3.27;2.47;;;;;;;4.57;100.00;99225.25;5056214;28;20250;-76
2023/12/31 06:51:24;;;;;;;2.50;2.30;;;;;;;4.61;100.00;99220.13;5056552;28;20210;-77
2023/12/31 06:53:50;;;;;;;2.90;2.30;;;;;;;4.63;100.00;99213.28;5050339;28;20257;-78
2023/12/31 06:56:17;;;;;;;2.60;2.00;;;;;;;4.66;100.00;99218.41;5050629;28;20217;-77
2023/12/31 06:58:43;;;;;;;2.57;2.30;;;;;;;4.66;100.00;99203.91;5051616;28;20184;-77
2023/12/31 07:01:08;;;;;;;3.10;2.80;;;;;;;4.68;100.00;99204.75;5052397;28;22689;-77
2023/12/31 07:03:34;;;;;;;3.40;2.80;;;;;;;4.72;100.00;99210.72;5047739;28;20908;-76
2023/12/31 07:06:00;;;;;;;2.53;2.33;;;;;;;4.74;100.00;99209.00;5046553;28;20293;-77
2023/12/31 07:08:25;;;;;;;3.00;2.40;;;;;;;4.77;100.00;99208.13;5047854;28;20187;-78
2023/12/31 07:10:52;;;;;;;2.60;2.40;;;;;;;4.78;100.00;99200.44;5047106;28;20316;-76
2023/12/31 07:13:18;;;;;;;2.93;2.57;;;;;;;4.81;100.00;99194.47;5048845;28;20210;-76
2023/12/31 07:15:43;;;;;;;2.73;2.53;;;;;;;4.85;100.00;99183.31;5051282;28;20222;-74
2023/12/31 07:18:09;;;;;;;3.00;2.70;;;;;;;4.85;100.00;99183.31;5047480;28;20196;-77
2023/12/31 07:20:34;;;;;;;3.17;2.60;;;;;;;4.86;100.00;99177.34;5046491;28;20195;-76
2023/12/31 07:23:00;;;;;;;5.03;2.83;;;;;;;4.87;100.00;99182.47;5044551;28;20221;-76
2023/12/31 07:25:28;;;;;;;3.67;3.37;;;;;;;4.87;100.00;99179.91;5042349;28;20663;-75
2023/12/31 07:27:53;;;;;;;3.30;3.00;;;;;;;4.81;100.00;99177.34;5047251;28;20285;-75
2023/12/31 07:30:18;;;;;;;3.63;3.10;;;;;;;4.76;100.00;99181.66;5052775;28;20285;-76
2023/12/31 07:32:46;;;;;;;4.87;3.33;;;;;;;4.72;100.00;99179.97;5054791;28;20210;-76
2023/12/31 07:35:12;;;;;;;3.57;2.90;;;;;;;4.71;100.00;99186.78;5047618;28;20191;-76
2023/12/31 07:37:38;;;;;;;3.37;3.00;;;;;;;4.73;100.00;99169.69;5048849;28;20248;-76
2023/12/31 07:40:05;;;;;;;3.80;3.40;;;;;;;4.80;100.00;99164.56;5059790;28;20224;-76
2023/12/31 07:42:30;;;;;;;9.53;8.53;;;;;;;4.80;100.00;99162.81;5054641;28;20217;-77
2023/12/31 07:44:56;;;;;;;4.60;4.20;;;;;;;4.81;100.00;99156.84;5050949;28;20215;-77
2023/12/31 07:47:21;;;;;;;4.50;4.10;;;;;;;4.81;100.00;99154.28;5055777;28;20679;-76
2023/12/31 07:49:47;;;;;;;5.07;3.63;;;;;;;4.87;100.00;99136.31;5053574;28;20594;-77
2023/12/31 07:52:14;;;;;;;4.90;4.50;;;;;;;4.85;100.00;99135.47;5055656;28;20999;-77
2023/12/31 07:54:39;;;;;;;4.57;4.17;;;;;;;4.86;100.00;99126.06;5048237;28;20187;-76
2023/12/31 07:57:05;;;;;;;3.87;3.47;;;;;;;4.86;100.00;99128.63;5054523;28;20230;-77
2023/12/31 07:59:30;;;;;;;4.13;3.73;;;;;;;4.90;100.00;99130.31;5049655;28;20194;-76
2023/12/31 08:01:57;;;;;;;16.87;13.73;;;;;;;4.93;100.00;99122.63;5056048;28;20190;-76
2023/12/31 08:04:23;;;;;;;10.87;9.03;;;;;;;4.95;100.00;99126.03;5051647;28;20183;-77
2023/12/31 08:06:48;;;;;;;10.60;9.50;;;;;;;4.96;100.00;99116.63;5063788;28;20243;-76
2023/12/31 08:09:15;;;;;;;12.93;9.53;;;;;;;4.99;100.00;99106.34;5059637;28;20685;-76
2023/12/31 08:11:40;;;;;;;9.37;8.37;;;;;;;5.02;100.00;99112.31;5043595;28;20188;-77
2023/12/31 08:14:06;;;;;;;5.40;4.80;;;;;;;5.07;100.00;99122.53;5048795;28;20351;-78
2023/12/31 08:16:31;;;;;;;4.27;3.63;;;;;;;5.04;100.00;99120.00;5045423;28;20340;-76
2023/12/31 08:18:57;;;;;;;3.00;2.77;;;;;;;5.03;100.00;99126.00;5047590;28;20182;-77
2023/12/31 08:21:22;;;;;;;4.17;3.07;;;;;;;5.07;100.00;99125.09;5053730;28;20182;-77
2023/12/31 08:23:47;;;;;;;2.93;2.73;;;;;;;5.06;100.00;99117.44;5052908;28;20289;-77
2023/12/31 08:26:13;;;;;;;4.17;2.83;;;;;;;5.10;100.00;99119.13;5048341;28;20317;-76
2023/12/31 08:28:39;;;;;;;2.60;2.40;;;;;;;5.10;100.00;99112.25;5044840;28;20187;-76
2023/12/31 08:31:04;;;;;;;2.60;2.40;;;;;;;5.09;100.00;99123.38;5045683;28;20286;-77
2023/12/31 08:33:29;;;;;;;3.47;2.50;;;;;;;5.11;100.00;99120.81;5046103;28;21125;-77
2023/12/31 08:35:55;;;;;;;3.13;2.60;;;;;;;5.22;100.00;99115.66;5046331;28;20211;-77
2023/12/31 08:38:20;;;;;;;3.40;2.43;;;;;;;5.27;100.00;99107.06;5048942;28;20598;-77
2023/12/31 08:40:45;;;;;;;2.33;2.13;;;;;;;5.36;100.00;99097.59;5049012;28;20207;-77
2023/12/31 08:43:11;;;;;;;2.80;2.60;;;;;;;5.45;100.00;99100.94;5053620;28;20609;-76
2023/12/31 08:45:39;;;;;;;2.33;2.13;;;;;;;5.53;100.00;99102.56;5053405;28;20701;-77
2023/12/31 08:48:07;;;;;;;2.77;2.50;;;;;;;5.62;100.00;99103.38;5049714;28;20277;-78
2023/12/31 08:50:35;;;;;;;3.40;3.10;;;;;;;5.71;100.00;99101.59;5050373;28;20186;-77
2023/12/31 08:53:00;;;;;;;11.47;7.90;;;;;;;5.78;100.00;99101.53;5049666;28;20683;-76
2023/12/31 08:55:26;;;;;;;3.43;3.13;;;;;;;5.85;100.00;99093.78;5046587;28;20197;-77
2023/12/31 08:57:51;;;;;;;3.30;3.00;;;;;;;5.87;100.00;99092.03;5054191;28;20286;-76
2023/12/31 09:00:17;;;;;;;3.33;2.90;;;;;;;5.85;100.00;99089.50;5046663;28;20187;-75
2023/12/31 09:02:43;;;;;;;3.67;3.23;;;;;;;5.93;100.00;99082.56;5045601;28;20225;-76
2023/12/31 09:05:09;;;;;;;4.40;3.43;;;;;;;6.07;100.00;99081.59;5050690;28;20192;-77
2023/12/31 09:07:35;;;;;;;3.30;3.00;;;;;;;6.21;100.00;99077.16;5051490;28;20185;-77
2023/12/31 09:10:02;;;;;;;3.47;2.90;;;;;;;6.36;100.00;99080.44;5057456;28;20581;-77
2023/12/31 09:12:28;;;;;;;3.40;3.10;;;;;;;6.55;100.00;99069.09;5049715;28;20234;-76
2023/12/31 09:14:53;;;;;;;3.80;3.17;;;;;;;6.71;100.00;99067.19;5050212;28;21701;-77
2023/12/31 09:17:18;;;;;;;3.17;2.87;;;;;;;6.85;100.00;99068.72;5055775;28;20215;-77
2023/12/31 09:19:44;;;;;;;4.70;4.30;;;;;;;6.99;100.00;99064.25;5047667;28;20288;-78
2023/12/31 09:22:09;;;;;;;4.03;3.73;;;;;;;7.16;100.00;99065.72;5050295;28;20219;-78
2023/12/31 09:24:35;;;;;;;3.93;3.63;;;;;;;7.34;100.00;99064.59;5048751;28;20193;-77
2023/12/31 09:27:00;;;;;;;3.80;3.50;;;;;;;7.53;100.00;99049.69;5045244;28;20315;-78
2023/12/31 09:29:26;;;;;;;2.90;2.70;;;;;;;7.71;100.00;99050.25;5050953;28;20196;-77
2023/12/31 09:31:51;;;;;;;3.30;3.10;;;;;;;7.88;100.00;99047.38;5053315;28;20188;-77
2023/12/31 09:34:16;;;;;;;4.00;3.70;;;;;;;8.04;100.00;99032.50;5061523;28;20870;-77
2023/12/31 09:36:42;;;;;;;3.47;3.27;;;;;;;8.22;100.00;99034.75;5055443;28;20225;-77
2023/12/31 09:39:08;;;;;;;3.00;2.80;;;;;;;8.41;100.00;99025.78;5055787;28;20188;-77
2023/12/31 09:41:35;;;;;;;2.70;2.50;;;;;;;8.57;100.00;99028.91;5050235;28;20252;-77
2023/12/31 09:44:03;;;;;;;2.40;2.20;;;;;;;8.75;100.00;99023.38;5057986;28;20274;-77
2023/12/31 09:46:31;;;;;;;2.70;2.50;;;;;;;8.90;100.00;99013.59;5056215;28;20187;-77
2023/12/31 09:48:58;;;;;;;2.97;2.63;;;;;;;9.05;100.00;99020.16;5057914;28;20197;-77
2023/12/31 09:51:23;;;;;;;2.40;2.20;;;;;;;9.17;100.00;99019.00;5049273;28;20214;-77
2023/12/31 09:53:52;;;;;;;2.47;2.27;;;;;;;9.23;100.00;99017.09;5049735;28;20298;-77
2023/12/31 09:56:19;;;;;;;2.70;2.10;;;;;;;9.34;100.00;99016.84;5049500;28;20213;-78
2023/12/31 09:58:45;;;;;;;2.60;2.40;;;;;;;9.51;100.00;99015.59;5050513;28;20194;-76
2023/12/31 10:01:10;;;;;;;2.33;2.13;;;;;;;9.67;100.00;99013.50;5048087;28;20186;-77
2023/12/31 10:03:38;;;;;;;2.40;2.20;;;;;;;9.82;100.00;99015.66;5053920;28;20668;-77
2023/12/31 10:06:06;;;;;;;2.57;2.37;;;;;;;9.98;100.00;99008.34;5056922;28;20184;-78
2023/12/31 10:08:32;;;;;;;2.50;2.10;;;;;;;10.13;100.00;99007.09;5053013;28;20233;-77
2023/12/31 10:10:59;;;;;;;2.30;2.10;;;;;;;10.24;100.00;99001.59;5046234;28;20233;-77
2023/12/31 10:13:26;;;;;;;2.13;2.00;;;;;;;10.29;100.00;99001.47;5049647;28;20219;-77
2023/12/31 10:15:51;;;;;;;2.40;2.20;;;;;;;10.36;100.00;99003.00;5047005;28;20207;-78
2023/12/31 10:18:17;;;;;;;2.47;2.27;;;;;;;10.39;100.00;99002.06;5045729;28;20201;-77
2023/12/31 10:20:42;;;;;;;2.03;1.93;;;;;;;10.46;100.00;99003.59;5050343;28;20191;-77
2023/12/31 10:23:08;;;;;;;2.43;2.20;;;;;;;10.56;100.00;99011.94;5051082;28;20287;-77
2023/12/31 10:25:33;;;;;;;5.03;3.30;;;;;;;10.56;100.00;99004.19;5050362;28;20421;-77
2023/12/31 10:27:59;;;;;;;3.87;3.57;;;;;;;10.46;100.00;99017.38;5063746;28;20194;-78
2023/12/31 10:30:24;;;;;;;4.00;3.67;;;;;;;10.28;100.00;99010.97;5059518;28;20207;-77
2023/12/31 10:32:50;;;;;;;5.60;5.10;;;;;;;9.81;100.00;99020.84;5053032;28;20206;-78
2023/12/31 10:35:22;;;;;;;5.87;5.30;;;;;;;9.60;100.00;99034.28;5045919;28;20187;-78
2023/12/31 10:38:01;;;;;;;6.70;5.97;;;;;;;9.12;100.00;99070.72;5048638;28;20762;-77
2023/12/31 10:40:29;;;;;;;5.43;4.93;;;;;;;8.80;100.00;99147.09;5053464;28;20220;-78
2023/12/31 10:42:57;;;;;;;4.90;4.50;;;;;;;8.69;100.00;99158.47;5053048;28;20211;-78
2023/12/31 10:45:23;;;;;;;5.03;4.20;;;;;;;8.65;100.00;99158.56;5051927;28;20193;-77
2023/12/31 10:47:51;;;;;;;3.83;3.40;;;;;;;8.67;100.00;99170.56;5053255;28;20691;-77
2023/12/31 10:50:21;;;;;;;3.40;3.10;;;;;;;8.65;100.00;99179.19;5056295;28;20194;-77
2023/12/31 10:52:49;;;;;;;3.00;2.70;;;;;;;8.64;100.00;99180.09;5056577;28;20209;-77
2023/12/31 10:55:16;;;;;;;3.47;3.20;;;;;;;8.65;100.00;99179.19;5056120;28;20216;-77
2023/12/31 10:57:42;;;;;;;3.50;3.20;;;;;;;8.60;100.00;99173.28;5055214;28;20229;-77
2023/12/31 11:00:12;;;;;;;4.17;3.50;;;;;;;8.61;100.00;99174.97;5061890;28;20571;-78
2023/12/31 11:02:37;;;;;;;2.80;2.40;;;;;;;8.60;100.00;99183.59;5049314;28;20219;-76
2023/12/31 11:05:04;;;;;;;3.17;2.87;;;;;;;8.59;100.00;99187.03;5047771;28;20218;-77
2023/12/31 11:07:29;;;;;;;3.93;3.57;;;;;;;8.60;100.00;99192.19;5053637;28;20484;-77
2023/12/31 11:09:55;;;;;;;3.10;2.60;;;;;;;8.65;100.00;99200.66;5052687;28;20849;-76
2023/12/31 11:12:21;;;;;;;4.77;4.30;;;;;;;8.67;100.00;99203.25;5050401;28;20765;-77
2023/12/31 11:15:06;;;;;;;4.03;3.67;;;;;;;8.67;100.00;99213.56;5055211;28;20198;-77
2023/12/31 11:17:56;;;;;;;3.83;3.53;;;;;;;8.60;100.00;99217.97;5050486;28;20207;-76
2023/12/31 11:20:58;;;;;;;3.53;3.23;;;;;;;8.57;100.00;99219.75;5054073;28;20236;-77
2023/12/31 11:24:18;;;;;;;5.13;3.30;;;;;;;8.55;100.00;99243.00;5048765;28;20707;-78
2023/12/31 11:26:44;;;;;;;2.97;2.50;;;;;;;8.55;100.00;99232.69;4999087;28;20334;-77
2023/12/31 11:29:13;;;;;;;2.87;2.67;;;;;;;8.56;100.00;99231.81;5043059;28;20957;-76